Time;durP1;ratioP1;P1;durP2;ratioP2;P2;SDS_P1;SDS_P2;PMS_P1;PMS_P2;Temp;Humidity;BMP_temperature;BMP_pressure;BME280_temperature;BME280_humidity;BME280_pressure;Samples;Min_cycle;Max_cycle;Signal;HPM_P1;HPM_P2
2023/01/31 02:23:47;904321.00;3.01;1563.71;106519.00;0.36;184.82;;;;;7.00;1.00;;;;;;2507829;40;3456;31
2023/01/31 05:43:57;1103963.00;3.68;1917.51;17568.00;0.06;31.06;;;;;8.00;1.00;;;;;;2425885;40;3654;31
2023/01/31 06:59:03;868299.00;2.89;1500.51;0.00;0.00;0.62;;;;;7.60;1.00;;;;;;2274291;61;1005;-90
2023/01/31 07:26:56;1083073.00;3.61;1880.18;11393.00;0.04;20.36;;;;;7.40;1.00;;;;;;2271065;61;991;-89
2023/01/31 07:31:58;120587728.00;401.96;71034528.00;0.00;0.00;0.62;;;;;7.10;1.00;;;;;;2270726;61;1306;-87
2023/01/31 07:59:26;658404.00;2.19;1135.18;26834.00;0.09;47.10;;;;;7.90;1.00;;;;;;2274476;61;1308;-89
2023/01/31 08:22:11;927430.00;3.09;1604.35;0.00;0.00;0.62;;;;;7.40;1.00;;;;;;2284804;39;3505;-89
2023/01/31 08:39:44;1205304.00;4.02;2099.81;69981.00;0.23;121.73;;;;;7.90;1.00;;;;;;2274582;61;1066;-89
2023/01/31 08:44:47;829483.00;2.76;1432.59;0.00;0.00;0.62;;;;;8.20;1.00;;;;;;2270561;61;1375;-91
2023/01/31 08:47:16;456741.00;1.52;787.38;0.00;0.00;0.62;;;;;8.00;1.00;;;;;;2273042;61;1548;-90
2023/01/31 09:24:41;641243.00;2.14;1105.49;0.00;0.00;0.62;;;;;7.70;1.00;;;;;;2509682;55;3559;31
2023/01/31 10:21:57;442546.00;1.48;762.96;0.00;0.00;0.62;;;;;9.50;1.00;;;;;;1653519;55;3571;-89
2023/01/31 10:42:08;756018.00;2.52;1304.52;0.00;0.00;0.62;;;;;9.50;1.00;;;;;;2274380;61;1009;-89
2023/01/31 11:22:22;627078.00;2.09;1081.00;0.00;0.00;0.62;;;;;9.30;1.00;;;;;;2275308;61;1008;-89
2023/01/31 11:27:29;795250.00;2.65;1372.84;0.00;0.00;0.62;;;;;9.80;1.00;;;;;;2279244;61;1307;-89
2023/01/31 11:29:58;222900.00;0.74;385.33;0.00;0.00;0.62;;;;;9.90;1.00;;;;;;2277450;61;1801;-91
2023/01/31 11:58:31;760488.00;2.53;1312.30;0.00;0.00;0.62;;;;;9.70;1.00;;;;;;2507529;55;3673;31
2023/01/31 12:21:00;851280.00;2.84;1470.71;0.00;0.00;0.62;;;;;9.60;1.00;;;;;;2518775;40;3403;31
2023/01/31 12:38:29;751597.00;2.51;1296.83;16888.00;0.06;29.88;;;;;9.20;1.00;;;;;;2510984;40;3392;31
2023/01/31 12:41:03;780999.00;2.60;1348.01;28065.00;0.09;49.23;;;;;9.30;1.00;;;;;;2514378;40;3779;31
2023/01/31 14:03:26;815792.00;2.72;1408.68;11904.00;0.04;21.25;;;;;8.90;1.00;;;;;;2275107;61;1352;-90
2023/01/31 14:08:55;970236.00;3.23;1679.83;0.00;0.00;0.62;;;;;8.80;1.00;;;;;;2275022;61;1308;-89
2023/01/31 15:41:24;1157754.00;3.86;2014.02;72693.00;0.24;126.41;;;;;8.00;1.00;;;;;;2274402;61;1012;-92
2023/01/31 15:51:20;2308658.00;7.70;4278.57;264346.00;0.88;456.62;;;;;8.20;1.00;;;;;;2274491;61;969;-90
2023/01/31 16:28:53;1661232.00;5.54;2950.34;222947.00;0.74;385.41;;;;;8.40;1.00;;;;;;2512025;55;3514;31
2023/01/31 16:43:53;765444.00;2.55;1320.92;0.00;0.00;0.62;;;;;7.90;1.00;;;;;;2274778;61;1351;-89
2023/01/31 16:51:42;801713.00;2.67;1384.11;0.00;0.00;0.62;;;;;8.10;1.00;;;;;;2274943;61;985;-92
2023/01/31 17:57:11;640088.00;2.13;1103.49;12015.00;0.04;21.44;;;;;8.30;1.00;;;;;;2508333;40;3585;31
2023/01/31 18:29:37;818794.00;2.73;1413.92;40364.00;0.13;70.52;;;;;7.90;1.00;;;;;;2508826;55;3568;31
2023/01/31 18:44:37;522453.00;1.74;900.49;0.00;0.00;0.62;;;;;7.40;1.00;;;;;;2509089;55;3610;31
2023/01/31 18:54:33;637187.00;2.12;1098.47;0.00;0.00;0.62;;;;;7.90;1.00;;;;;;2509287;55;3553;31
2023/01/31 19:04:35;862144.00;2.87;1489.73;61147.00;0.20;106.46;;;;;7.50;1.00;;;;;;2517360;55;3545;31
2023/01/31 19:19:34;753509.00;2.51;1300.16;0.00;0.00;0.62;;;;;7.80;1.00;;;;;;2274648;61;1040;-90
2023/01/31 19:26:58;710908.00;2.37;1226.16;0.00;0.00;0.62;;;;;8.10;1.00;;;;;;2274706;61;1289;-91
2023/01/31 19:29:26;352120.00;1.17;607.51;0.00;0.00;0.62;;;;;8.20;1.00;;;;;;2272879;61;1553;-90
2023/01/31 19:31:56;256280.00;0.85;442.75;0.00;0.00;0.62;;;;;8.30;1.00;;;;;;2272776;61;1841;-91
2023/01/31 19:34:23;408783.00;1.36;704.90;0.00;0.00;0.62;;;;;8.30;1.00;;;;;;2272553;61;1485;-88
2023/01/31 19:36:51;305832.00;1.02;527.95;0.00;0.00;0.62;;;;;8.10;1.00;;;;;;2272166;61;2004;-88
2023/01/31 19:39:18;285826.00;0.95;493.55;0.00;0.00;0.62;;;;;7.80;1.00;;;;;;2272270;61;2130;-87
2023/01/31 19:41:45;503944.00;1.68;868.61;8093.00;0.03;14.65;;;;;7.50;1.00;;;;;;2272183;61;978;-88
2023/01/31 19:44:12;332355.00;1.11;573.53;0.00;0.00;0.62;;;;;7.30;1.00;;;;;;2272096;61;1249;-88
2023/01/31 19:46:40;407685.00;1.36;703.02;15516.00;0.05;27.50;;;;;7.20;1.00;;;;;;2272044;61;1560;-89
2023/01/31 19:49:08;342203.00;1.14;590.46;0.00;0.00;0.62;;;;;7.40;1.00;;;;;;2272135;61;1675;-89
2023/01/31 19:51:36;256357.00;0.85;442.88;0.00;0.00;0.62;;;;;7.80;1.00;;;;;;2272187;61;2094;-89
2023/01/31 19:54:05;359482.00;1.20;620.16;0.00;0.00;0.62;;;;;7.80;1.00;;;;;;2271986;61;1628;-89
2023/01/31 19:56:33;118998256.00;396.66;68259992.00;0.00;0.00;0.62;;;;;7.90;1.00;;;;;;2272041;61;1428;-88
2023/01/31 19:59:00;470877.00;1.57;811.70;23632.00;0.08;41.56;;;;;8.00;1.00;;;;;;2272060;61;2007;-89
2023/01/31 20:01:27;388781.00;1.30;670.52;32221.00;0.11;56.43;;;;;8.10;1.00;;;;;;2272084;61;1546;-89
2023/01/31 20:03:54;393703.00;1.31;678.98;0.00;0.00;0.62;;;;;8.00;1.00;;;;;;2272086;61;1664;-89
2023/01/31 20:06:24;387367.00;1.29;668.09;0.00;0.00;0.62;;;;;7.50;1.00;;;;;;2272195;61;1047;-90
2023/01/31 20:08:52;330837.00;1.10;570.92;0.00;0.00;0.62;;;;;7.70;1.00;;;;;;2272143;61;1094;-88
2023/01/31 20:11:21;301221.00;1.00;520.02;0.00;0.00;0.62;;;;;7.70;1.00;;;;;;2272207;61;1054;-89
2023/01/31 20:13:49;250618.00;0.84;433.01;0.00;0.00;0.62;;;;;7.90;1.00;;;;;;2272021;61;1716;-88
2023/01/31 20:16:17;463933.00;1.55;799.75;0.00;0.00;0.62;;;;;7.80;1.00;;;;;;2272182;61;1036;-89
2023/01/31 20:18:44;365936.00;1.22;631.25;0.00;0.00;0.62;;;;;7.70;1.00;;;;;;2272452;61;2009;-88
2023/01/31 20:21:14;185534.00;0.62;321.02;0.00;0.00;0.62;;;;;7.50;1.00;;;;;;2272834;61;1353;-89
2023/01/31 20:23:43;295458.00;0.98;510.11;0.00;0.00;0.62;;;;;7.20;1.00;;;;;;2272834;61;1376;-89
2023/01/31 20:26:11;138489.00;0.46;239.97;0.00;0.00;0.62;;;;;7.30;1.00;;;;;;2272777;61;1592;-87
2023/01/31 20:28:42;223285.00;0.74;386.00;0.00;0.00;0.62;;;;;7.30;1.00;;;;;;2272813;61;914;-88
2023/01/31 20:31:14;277624.00;0.93;479.45;0.00;0.00;0.62;;;;;7.60;1.00;;;;;;2272653;61;1058;-88
2023/01/31 20:33:45;122663520.00;408.88;74769936.00;14680.00;0.05;26.06;;;;;7.70;1.00;;;;;;2275461;55;3746;-87
2023/01/31 20:36:12;308145.00;1.03;531.92;0.00;0.00;0.62;;;;;7.70;1.00;;;;;;2276828;61;926;-88
2023/01/31 20:38:40;270795.00;0.90;467.71;0.00;0.00;0.62;;;;;7.40;1.00;;;;;;2276816;61;1920;-91
2023/01/31 20:41:13;332853.00;1.11;574.39;0.00;0.00;0.62;;;;;7.40;1.00;;;;;;2276705;61;2243;-88
2023/01/31 20:43:46;336435.00;1.12;580.55;0.00;0.00;0.62;;;;;7.20;1.00;;;;;;2276721;61;1605;-88
2023/01/31 20:46:14;529517.00;1.77;912.66;0.00;0.00;0.62;;;;;7.40;1.00;;;;;;2276781;61;938;-88
2023/01/31 20:48:49;225751.00;0.75;390.24;0.00;0.00;0.62;;;;;7.20;1.00;;;;;;2276790;61;960;-86
2023/01/31 20:51:16;310974.00;1.04;536.78;0.00;0.00;0.62;;;;;7.30;1.00;;;;;;2276604;61;1726;-88
2023/01/31 20:53:43;243771.00;0.81;421.24;0.00;0.00;0.62;;;;;7.30;1.00;;;;;;2276540;61;1362;-88
2023/01/31 20:56:13;294285.00;0.98;508.10;0.00;0.00;0.62;;;;;7.40;1.00;;;;;;2276549;61;1051;-90
2023/01/31 20:58:43;490589.00;1.64;845.62;0.00;0.00;0.62;;;;;7.40;1.00;;;;;;2276496;61;1915;-87
2023/01/31 21:01:14;317369.00;1.06;547.78;0.00;0.00;0.62;;;;;7.40;1.00;;;;;;2276810;61;911;-89
2023/01/31 21:03:41;324245.00;1.08;559.59;0.00;0.00;0.62;;;;;7.80;1.00;;;;;;2276588;61;1301;-89
2023/01/31 21:06:09;372405.00;1.24;642.37;0.00;0.00;0.62;;;;;7.90;1.00;;;;;;2276620;61;1402;-87
2023/01/31 21:08:36;277401.00;0.92;479.07;0.00;0.00;0.62;;;;;7.70;1.00;;;;;;2276668;61;1674;-89
2023/01/31 21:11:06;389650.00;1.30;672.01;0.00;0.00;0.62;;;;;7.70;1.00;;;;;;2276725;61;1698;-89
2023/01/31 21:13:38;345012.00;1.15;595.29;0.00;0.00;0.62;;;;;7.70;1.00;;;;;;2276631;61;1926;-88
2023/01/31 21:16:10;194915.00;0.65;337.17;0.00;0.00;0.62;;;;;7.90;1.00;;;;;;2276648;61;1564;-89
2023/01/31 21:18:42;254950.00;0.85;440.46;0.00;0.00;0.62;;;;;8.20;1.00;;;;;;2276647;61;1927;-89
2023/01/31 21:21:12;430747.00;1.44;742.67;96118.00;0.32;166.87;;;;;8.30;1.00;;;;;;2276595;61;1015;-88
2023/01/31 21:23:40;686082.00;2.29;1183.11;112437.00;0.37;195.03;;;;;8.40;1.00;;;;;;2276607;61;1550;-89
2023/01/31 21:26:09;527606.00;1.76;909.37;95467.00;0.32;165.75;;;;;8.10;1.00;;;;;;2276700;61;1035;-89
2023/01/31 21:28:39;436090.00;1.45;751.86;98072.00;0.33;170.24;;;;;8.30;1.00;;;;;;2276612;61;1087;-89
2023/01/31 21:31:11;548294.00;1.83;945.02;94833.00;0.32;164.65;;;;;8.20;1.00;;;;;;2276470;61;1598;-88
2023/01/31 21:33:45;514170.00;1.71;886.22;94500.00;0.31;164.08;;;;;8.20;1.00;;;;;;2276577;61;1409;-88
2023/01/31 21:36:14;769209.00;2.56;1327.48;99378.00;0.33;172.50;;;;;7.90;1.00;;;;;;2276516;61;1645;-89
2023/01/31 21:38:42;1212557.00;4.04;2112.94;180988.00;0.60;313.19;;;;;7.80;1.00;;;;;;2276547;61;1915;-88
2023/01/31 21:43:57;1151316.00;3.84;2002.44;59298.00;0.20;103.26;;;;;7.60;1.00;;;;;;2276635;61;1417;-88
2023/01/31 21:46:27;641855.00;2.14;1106.55;101732.00;0.34;176.56;;;;;7.60;1.00;;;;;;2276580;61;960;-86
2023/01/31 21:48:55;1291918.00;4.31;2257.32;201686.00;0.67;348.83;;;;;7.30;1.00;;;;;;2276673;61;1044;-86
2023/01/31 21:51:27;1352974.00;4.51;2369.39;190916.00;0.64;330.29;;;;;7.10;1.00;;;;;;2276585;61;1092;-88
2023/01/31 21:53:54;1655983.00;5.52;2940.22;161907.00;0.54;280.32;;;;;7.40;1.00;;;;;;2276593;61;1356;-87
2023/01/31 21:56:24;1665963.00;5.55;2959.48;160504.00;0.54;277.91;;;;;7.60;1.00;;;;;;2276609;61;849;-88
2023/01/31 21:58:53;1278122.00;4.26;2232.12;143724.00;0.48;248.99;;;;;7.60;1.00;;;;;;2276464;61;1927;-88
2023/01/31 22:01:22;1783801.00;5.95;3189.44;190609.00;0.64;329.76;;;;;7.80;1.00;;;;;;2276470;61;1553;-90
2023/01/31 22:03:58;1362407.00;4.54;2386.78;242439.00;0.81;418.95;;;;;7.80;1.00;;;;;;2276418;61;1454;-88
2023/01/31 22:06:27;1371609.00;4.57;2403.77;54514.00;0.18;94.99;;;;;8.00;1.00;;;;;;2276644;61;929;-89
2023/01/31 22:08:57;1759209.00;5.86;3141.06;133675.00;0.45;231.67;;;;;8.40;1.00;;;;;;2276517;61;1070;-90
2023/01/31 22:11:27;1214533.00;4.05;2116.52;48298.00;0.16;84.24;;;;;8.40;1.00;;;;;;2276547;61;899;-88
2023/01/31 22:13:54;1572522.00;5.24;2780.34;110376.00;0.37;191.48;;;;;8.30;1.00;;;;;;2276487;61;1388;-87
2023/01/31 22:16:25;1380910.00;4.60;2420.97;168304.00;0.56;291.35;;;;;8.60;1.00;;;;;;2276543;61;1045;-88
2023/01/31 22:18:54;1365309.00;4.55;2392.14;144802.00;0.48;250.85;;;;;8.60;1.00;;;;;;2276420;61;1986;-88
2023/01/31 22:21:23;1342504.00;4.48;2350.11;123318.00;0.41;213.81;;;;;8.50;1.00;;;;;;2276556;61;1021;-87
2023/01/31 22:23:51;1246998.00;4.16;2175.43;143384.00;0.48;248.40;;;;;8.60;1.00;;;;;;2276441;61;1355;-88
2023/01/31 22:26:22;1417506.00;4.73;2488.83;174719.00;0.58;302.39;;;;;8.60;1.00;;;;;;2276395;61;1444;-89
2023/01/31 22:28:53;1054320.00;3.51;1828.92;155564.00;0.52;269.40;;;;;8.70;1.00;;;;;;2276489;61;1071;-88
2023/01/31 22:31:20;1402206.00;4.67;2460.42;183826.00;0.61;318.08;;;;;9.00;1.00;;;;;;2276500;61;993;-88
2023/01/31 22:33:48;1589152.00;5.30;2812.03;157453.00;0.52;272.65;;;;;8.90;1.00;;;;;;2276102;61;1298;-88
2023/01/31 22:36:17;1327822.00;4.43;2323.11;200816.00;0.67;347.33;;;;;9.00;1.00;;;;;;2276369;61;1412;-89
2023/01/31 22:38:45;1111172.00;3.70;1930.41;208654.00;0.70;360.82;;;;;9.00;1.00;;;;;;2276450;61;1996;-90
2023/01/31 22:41:14;1094456.00;3.65;1900.51;72715.00;0.24;126.45;;;;;8.90;1.00;;;;;;2276128;61;1009;-89
2023/01/31 22:43:43;1091356.00;3.64;1894.97;71164.00;0.24;123.77;;;;;8.70;1.00;;;;;;2276390;61;1399;-88
2023/01/31 22:46:13;1117776.00;3.73;1942.24;101789.00;0.34;176.66;;;;;8.60;1.00;;;;;;2276282;61;1197;-90
2023/01/31 22:48:40;1488855.00;4.96;2622.17;221003.00;0.74;382.07;;;;;8.70;1.00;;;;;;2276176;61;1553;-89
2023/01/31 22:51:14;1248461.00;4.16;2178.09;60403.00;0.20;105.17;;;;;8.70;1.00;;;;;;2276376;61;1421;-89
2023/01/31 22:53:45;1228973.00;4.10;2142.69;85080.00;0.28;147.81;;;;;8.80;1.00;;;;;;2276278;61;1457;-91
2023/01/31 22:56:18;1463637.00;4.88;2574.88;152870.00;0.51;264.75;;;;;8.90;1.00;;;;;;2276371;61;1506;-90
2023/01/31 22:58:48;1158416.00;3.86;2015.21;87482.00;0.29;151.96;;;;;8.80;1.00;;;;;;2276293;61;1997;-89
2023/01/31 23:01:17;1232191.00;4.11;2148.53;112111.00;0.37;194.47;;;;;9.00;1.00;;;;;;2276373;61;1621;-87
2023/01/31 23:03:44;1193312.00;3.98;2078.13;69909.00;0.23;121.60;;;;;8.90;1.00;;;;;;2276446;61;1409;-87
2023/01/31 23:06:12;1542493.00;5.14;2723.34;181223.00;0.60;313.60;;;;;9.00;1.00;;;;;;2276287;61;984;-89
2023/01/31 23:08:40;1290779.00;4.30;2255.24;76126.00;0.25;132.35;;;;;9.10;1.00;;;;;;2276407;61;1524;-88
2023/01/31 23:11:12;942825.00;3.14;1631.46;50915.00;0.17;88.77;;;;;9.10;1.00;;;;;;2276324;61;954;-89
2023/01/31 23:13:39;1074652.00;3.58;1865.15;116586.00;0.39;202.19;;;;;9.10;1.00;;;;;;2276376;61;1494;-88
2023/01/31 23:16:07;891022.00;2.97;1540.36;148039.00;0.49;256.43;;;;;8.90;1.00;;;;;;2276352;61;1027;-87
2023/01/31 23:18:35;1204266.00;4.01;2097.94;209885.00;0.70;362.94;;;;;8.90;1.00;;;;;;2276307;61;1986;-88
2023/01/31 23:21:06;1146597.00;3.82;1993.96;126377.00;0.42;219.08;;;;;9.00;1.00;;;;;;2276305;61;921;-88
2023/01/31 23:23:33;1105027.00;3.68;1919.42;99617.00;0.33;172.91;;;;;9.10;1.00;;;;;;2276157;61;1358;-89
2023/01/31 23:26:00;1228010.00;4.09;2140.94;154308.00;0.51;267.23;;;;;9.50;1.00;;;;;;2276138;61;924;-89
2023/01/31 23:28:28;1482700.00;4.94;2610.61;181585.00;0.61;314.22;;;;;9.50;1.00;;;;;;2276212;61;1110;-87
2023/01/31 23:30:55;962069.00;3.21;1665.40;53728.00;0.18;93.63;;;;;9.40;1.00;;;;;;2276307;61;934;-89
2023/01/31 23:33:23;1397653.00;4.66;2451.97;121933.00;0.41;211.42;;;;;9.40;1.00;;;;;;2276091;61;1337;-89
2023/01/31 23:35:50;1419903.00;4.73;2493.29;130792.00;0.44;226.70;;;;;9.20;1.00;;;;;;2276116;61;1000;-89
2023/01/31 23:38:17;1953057.00;6.51;3528.38;148483.00;0.49;257.19;;;;;9.20;1.00;;;;;;2276140;61;2000;-89
2023/01/31 23:40:49;1539334.00;5.13;2717.35;62769.00;0.21;109.26;;;;;9.20;1.00;;;;;;2276139;61;1447;-86
2023/01/31 23:43:16;1577575.00;5.26;2789.96;47961.00;0.16;83.66;;;;;9.40;1.00;;;;;;2276050;61;1315;-87
2023/01/31 23:45:44;1358084.00;4.53;2378.81;8699.00;0.03;15.70;;;;;9.00;1.00;;;;;;2276272;61;996;-87
2023/01/31 23:48:11;1681129.00;5.60;2988.82;125585.00;0.42;217.72;;;;;8.90;1.00;;;;;;2276301;61;1129;-88
2023/01/31 23:50:38;1493065.00;4.98;2630.08;4796.00;0.02;8.93;;;;;8.80;1.00;;;;;;2276262;61;959;-88
2023/01/31 23:53:08;1916423.00;6.39;3454.10;92095.00;0.31;159.93;;;;;8.90;1.00;;;;;;2276111;61;1054;-87
2023/01/31 23:55:35;1616671.00;5.39;2864.64;167357.00;0.56;289.71;;;;;9.00;1.00;;;;;;2275968;61;1426;-87
2023/01/31 23:58:02;1613512.00;5.38;2858.59;184518.00;0.62;319.27;;;;;8.60;1.00;;;;;;2276145;61;2000;-88
